sensor_id;sensor_type;location;lat;lon;timestamp;temperature;humidity
22674;DHT22;11504;43.334;21.918;2022-08-01T00:03:14;19.8;100.0
22674;DHT22;11504;43.334;21.918;2022-08-01T00:07:51;19.8;100.0
22674;DHT22;11504;43.334;21.918;2022-08-01T00:12:27;19.6;100.0
22674;DHT22;11504;43.334;21.918;2022-08-01T00:17:04;19.6;100.0
22674;DHT22;11504;43.334;21.918;2022-08-01T00:21:41;19.6;100.0
22674;DHT22;11504;43.334;21.918;2022-08-01T00:26:17;19.5;100.0
22674;DHT22;11504;43.334;21.918;2022-08-01T00:30:54;19.5;100.0
22674;DHT22;11504;43.334;21.918;2022-08-01T00:35:30;19.3;100.0
22674;DHT22;11504;43.334;21.918;2022-08-01T00:40:08;19.3;100.0
22674;DHT22;11504;43.334;21.918;2022-08-01T00:44:46;19.2;100.0
22674;DHT22;11504;43.334;21.918;2022-08-01T00:49:24;19.2;100.0
22674;DHT22;11504;43.334;21.918;2022-08-01T00:54:03;19.1;100.0
22674;DHT22;11504;43.334;21.918;2022-08-01T00:58:40;19.1;100.0
22674;DHT22;11504;43.334;21.918;2022-08-01T01:03:17;19.0;100.0
22674;DHT22;11504;43.334;21.918;2022-08-01T01:08:02;19.0;100.0
22674;DHT22;11504;43.334;21.918;2022-08-01T01:13:26;19.0;100.0
22674;DHT22;11504;43.334;21.918;2022-08-01T01:18:39;19.0;100.0
22674;DHT22;11504;43.334;21.918;2022-08-01T01:23:49;19.0;100.0
22674;DHT22;11504;43.334;21.918;2022-08-01T01:29:16;19.0;100.0
22674;DHT22;11504;43.334;21.918;2022-08-01T01:34:15;19.0;100.0
22674;DHT22;11504;43.334;21.918;2022-08-01T01:39:03;19.0;100.0
22674;DHT22;11504;43.334;21.918;2022-08-01T01:43:44;19.0;100.0
22674;DHT22;11504;43.334;21.918;2022-08-01T01:48:31;19.0;100.0
22674;DHT22;11504;43.334;21.918;2022-08-01T01:53:21;19.0;100.0
22674;DHT22;11504;43.334;21.918;2022-08-01T01:58:15;19.0;100.0
22674;DHT22;11504;43.334;21.918;2022-08-01T02:03:09;18.8;100.0
22674;DHT22;11504;43.334;21.918;2022-08-01T02:07:58;18.8;100.0
22674;DHT22;11504;43.334;21.918;2022-08-01T02:12:44;18.6;100.0
22674;DHT22;11504;43.334;21.918;2022-08-01T02:17:29;18.6;100.0
22674;DHT22;11504;43.334;21.918;2022-08-01T02:22:30;18.5;100.0
22674;DHT22;11504;43.334;21.918;2022-08-01T02:27:45;18.5;100.0
22674;DHT22;11504;43.334;21.918;2022-08-01T02:32:51;18.3;100.0
22674;DHT22;11504;43.334;21.918;2022-08-01T02:37:55;18.3;100.0
22674;DHT22;11504;43.334;21.918;2022-08-01T02:42:49;18.2;100.0
22674;DHT22;11504;43.334;21.918;2022-08-01T02:47:34;18.2;100.0
22674;DHT22;11504;43.334;21.918;2022-08-01T02:52:23;18.1;100.0
22674;DHT22;11504;43.334;21.918;2022-08-01T02:57:09;18.1;100.0
22674;DHT22;11504;43.334;21.918;2022-08-01T03:01:53;18.1;100.0
22674;DHT22;11504;43.334;21.918;2022-08-01T03:06:38;18.0;100.0
22674;DHT22;11504;43.334;21.918;2022-08-01T03:11:18;18.0;100.0
22674;DHT22;11504;43.334;21.918;2022-08-01T03:16:05;17.9;100.0
22674;DHT22;11504;43.334;21.918;2022-08-01T03:20:50;17.9;100.0
22674;DHT22;11504;43.334;21.918;2022-08-01T03:25:41;17.8;100.0
22674;DHT22;11504;43.334;21.918;2022-08-01T03:30:28;17.8;100.0
22674;DHT22;11504;43.334;21.918;2022-08-01T03:35:13;17.8;100.0
22674;DHT22;11504;43.334;21.918;2022-08-01T03:40:00;17.8;100.0
22674;DHT22;11504;43.334;21.918;2022-08-01T03:45:08;17.8;100.0
22674;DHT22;11504;43.334;21.918;2022-08-01T03:50:06;17.8;100.0
22674;DHT22;11504;43.334;21.918;2022-08-01T03:54:56;17.9;100.0
22674;DHT22;11504;43.334;21.918;2022-08-01T03:59:48;17.9;100.0
22674;DHT22;11504;43.334;21.918;2022-08-01T04:04:29;18.1;100.0
22674;DHT22;11504;43.334;21.918;2022-08-01T04:09:08;18.1;100.0
22674;DHT22;11504;43.334;21.918;2022-08-01T04:13:47;18.3;100.0
22674;DHT22;11504;43.334;21.918;2022-08-01T04:18:24;18.3;100.0
22674;DHT22;11504;43.334;21.918;2022-08-01T04:23:01;19.0;100.0
22674;DHT22;11504;43.334;21.918;2022-08-01T04:27:47;19.0;100.0
22674;DHT22;11504;43.334;21.918;2022-08-01T04:32:39;19.7;100.0
22674;DHT22;11504;43.334;21.918;2022-08-01T04:37:36;19.7;100.0
22674;DHT22;11504;43.334;21.918;2022-08-01T04:42:27;24.4;100.0
22674;DHT22;11504;43.334;21.918;2022-08-01T04:47:06;24.4;100.0
22674;DHT22;11504;43.334;21.918;2022-08-01T04:51:51;24.4;100.0
22674;DHT22;11504;43.334;21.918;2022-08-01T04:56:32;29.1;100.0
22674;DHT22;11504;43.334;21.918;2022-08-01T05:01:11;29.1;100.0
22674;DHT22;11504;43.334;21.918;2022-08-01T05:05:50;31.5;100.0
22674;DHT22;11504;43.334;21.918;2022-08-01T05:10:27;31.5;100.0
22674;DHT22;11504;43.334;21.918;2022-08-01T05:15:07;33.9;100.0
22674;DHT22;11504;43.334;21.918;2022-08-01T05:19:45;33.9;100.0
22674;DHT22;11504;43.334;21.918;2022-08-01T05:24:21;35.2;100.0
22674;DHT22;11504;43.334;21.918;2022-08-01T05:28:58;35.2;100.0
22674;DHT22;11504;43.334;21.918;2022-08-01T05:33:35;36.4;100.0
22674;DHT22;11504;43.334;21.918;2022-08-01T05:38:11;36.4;100.0
22674;DHT22;11504;43.334;21.918;2022-08-01T05:42:48;37.4;100.0
22674;DHT22;11504;43.334;21.918;2022-08-01T05:47:24;37.4;100.0
22674;DHT22;11504;43.334;21.918;2022-08-01T05:52:01;37.4;100.0
22674;DHT22;11504;43.334;21.918;2022-08-01T05:56:38;38.5;100.0
22674;DHT22;11504;43.334;21.918;2022-08-01T06:01:17;38.5;100.0
22674;DHT22;11504;43.334;21.918;2022-08-01T06:05:55;38.7;100.0
22674;DHT22;11504;43.334;21.918;2022-08-01T06:10:32;38.7;100.0
22674;DHT22;11504;43.334;21.918;2022-08-01T06:15:10;38.9;100.0
22674;DHT22;11504;43.334;21.918;2022-08-01T06:19:48;38.9;100.0
22674;DHT22;11504;43.334;21.918;2022-08-01T06:24:25;35.8;100.0
22674;DHT22;11504;43.334;21.918;2022-08-01T06:29:02;35.8;100.0
22674;DHT22;11504;43.334;21.918;2022-08-01T06:33:39;32.8;100.0
22674;DHT22;11504;43.334;21.918;2022-08-01T06:38:16;32.8;100.0
22674;DHT22;11504;43.334;21.918;2022-08-01T06:42:52;33.1;100.0
22674;DHT22;11504;43.334;21.918;2022-08-01T06:47:29;33.1;100.0
22674;DHT22;11504;43.334;21.918;2022-08-01T06:52:06;33.1;100.0
22674;DHT22;11504;43.334;21.918;2022-08-01T06:56:43;33.4;100.0
22674;DHT22;11504;43.334;21.918;2022-08-01T07:01:20;33.4;100.0
22674;DHT22;11504;43.334;21.918;2022-08-01T07:05:56;33.2;100.0
22674;DHT22;11504;43.334;21.918;2022-08-01T07:10:33;33.2;100.0
22674;DHT22;11504;43.334;21.918;2022-08-01T07:15:11;33.1;100.0
22674;DHT22;11504;43.334;21.918;2022-08-01T07:19:49;33.1;100.0
22674;DHT22;11504;43.334;21.918;2022-08-01T07:24:27;33.2;100.0
22674;DHT22;11504;43.334;21.918;2022-08-01T07:29:05;33.2;100.0
22674;DHT22;11504;43.334;21.918;2022-08-01T07:33:42;33.3;100.0
22674;DHT22;11504;43.334;21.918;2022-08-01T07:38:20;33.3;100.0
22674;DHT22;11504;43.334;21.918;2022-08-01T07:42:57;33.6;100.0
22674;DHT22;11504;43.334;21.918;2022-08-01T07:47:34;33.6;100.0
22674;DHT22;11504;43.334;21.918;2022-08-01T07:52:12;33.6;100.0
22674;DHT22;11504;43.334;21.918;2022-08-01T07:56:50;34.0;100.0
22674;DHT22;11504;43.334;21.918;2022-08-01T08:01:27;34.0;100.0
22674;DHT22;11504;43.334;21.918;2022-08-01T08:06:04;34.0;100.0
22674;DHT22;11504;43.334;21.918;2022-08-01T08:10:41;34.0;100.0
22674;DHT22;11504;43.334;21.918;2022-08-01T08:15:18;34.1;100.0
22674;DHT22;11504;43.334;21.918;2022-08-01T08:19:55;34.1;100.0
22674;DHT22;11504;43.334;21.918;2022-08-01T08:24:31;34.1;100.0
22674;DHT22;11504;43.334;21.918;2022-08-01T08:29:07;34.1;100.0
22674;DHT22;11504;43.334;21.918;2022-08-01T08:33:44;34.1;100.0
22674;DHT22;11504;43.334;21.918;2022-08-01T08:38:20;34.1;100.0
22674;DHT22;11504;43.334;21.918;2022-08-01T08:42:59;34.2;100.0
22674;DHT22;11504;43.334;21.918;2022-08-01T08:47:43;34.2;100.0
22674;DHT22;11504;43.334;21.918;2022-08-01T08:52:25;34.4;100.0
22674;DHT22;11504;43.334;21.918;2022-08-01T08:57:06;34.4;100.0
22674;DHT22;11504;43.334;21.918;2022-08-01T09:01:50;34.4;100.0
22674;DHT22;11504;43.334;21.918;2022-08-01T09:06:28;34.4;100.0
22674;DHT22;11504;43.334;21.918;2022-08-01T09:11:06;34.4;100.0
22674;DHT22;11504;43.334;21.918;2022-08-01T09:15:47;34.4;100.0
22674;DHT22;11504;43.334;21.918;2022-08-01T09:20:32;34.4;100.0
22674;DHT22;11504;43.334;21.918;2022-08-01T09:25:10;34.4;100.0
22674;DHT22;11504;43.334;21.918;2022-08-01T09:29:47;34.4;100.0
22674;DHT22;11504;43.334;21.918;2022-08-01T09:34:29;34.4;100.0
22674;DHT22;11504;43.334;21.918;2022-08-01T09:39:14;34.4;100.0
22674;DHT22;11504;43.334;21.918;2022-08-01T09:43:52;34.1;100.0
22674;DHT22;11504;43.334;21.918;2022-08-01T09:48:29;34.1;100.0
22674;DHT22;11504;43.334;21.918;2022-08-01T09:53:08;33.8;100.0
22674;DHT22;11504;43.334;21.918;2022-08-01T09:57:56;33.8;100.0
22674;DHT22;11504;43.334;21.918;2022-08-01T10:02:38;33.5;100.0
22674;DHT22;11504;43.334;21.918;2022-08-01T10:07:18;33.5;100.0
22674;DHT22;11504;43.334;21.918;2022-08-01T10:12:00;33.5;100.0
22674;DHT22;11504;43.334;21.918;2022-08-01T10:16:42;33.2;100.0
22674;DHT22;11504;43.334;21.918;2022-08-01T10:21:29;33.2;100.0
22674;DHT22;11504;43.334;21.918;2022-08-01T10:26:16;33.0;100.0
22674;DHT22;11504;43.334;21.918;2022-08-01T10:30:57;33.0;100.0
22674;DHT22;11504;43.334;21.918;2022-08-01T10:35:39;32.8;100.0
22674;DHT22;11504;43.334;21.918;2022-08-01T10:40:22;32.8;100.0
22674;DHT22;11504;43.334;21.918;2022-08-01T10:45:03;32.6;100.0
22674;DHT22;11504;43.334;21.918;2022-08-01T10:49:59;32.6;100.0
22674;DHT22;11504;43.334;21.918;2022-08-01T10:55:07;32.5;100.0
22674;DHT22;11504;43.334;21.918;2022-08-01T10:59:50;32.5;100.0
22674;DHT22;11504;43.334;21.918;2022-08-01T11:04:42;32.2;100.0
22674;DHT22;11504;43.334;21.918;2022-08-01T11:09:43;32.2;100.0
22674;DHT22;11504;43.334;21.918;2022-08-01T11:14:28;32.0;100.0
22674;DHT22;11504;43.334;21.918;2022-08-01T11:19:08;32.0;100.0
22674;DHT22;11504;43.334;21.918;2022-08-01T11:23:49;31.7;100.0
22674;DHT22;11504;43.334;21.918;2022-08-01T11:28:28;31.7;100.0
22674;DHT22;11504;43.334;21.918;2022-08-01T11:33:05;31.4;100.0
22674;DHT22;11504;43.334;21.918;2022-08-01T11:37:44;31.4;100.0
22674;DHT22;11504;43.334;21.918;2022-08-01T11:42:21;31.4;100.0
22674;DHT22;11504;43.334;21.918;2022-08-01T11:47:04;31.2;100.0
22674;DHT22;11504;43.334;21.918;2022-08-01T11:51:43;31.2;100.0
22674;DHT22;11504;43.334;21.918;2022-08-01T11:56:20;31.1;100.0
22674;DHT22;11504;43.334;21.918;2022-08-01T12:00:59;31.1;100.0
22674;DHT22;11504;43.334;21.918;2022-08-01T12:05:36;31.1;100.0
22674;DHT22;11504;43.334;21.918;2022-08-01T12:10:17;31.1;100.0
22674;DHT22;11504;43.334;21.918;2022-08-01T12:15:07;31.1;100.0
22674;DHT22;11504;43.334;21.918;2022-08-01T12:19:49;31.1;100.0
22674;DHT22;11504;43.334;21.918;2022-08-01T12:24:26;31.1;100.0
22674;DHT22;11504;43.334;21.918;2022-08-01T12:29:03;31.1;100.0
22674;DHT22;11504;43.334;21.918;2022-08-01T12:33:40;31.1;100.0
22674;DHT22;11504;43.334;21.918;2022-08-01T12:38:21;31.1;100.0
22674;DHT22;11504;43.334;21.918;2022-08-01T12:43:04;31.2;100.0
22674;DHT22;11504;43.334;21.918;2022-08-01T12:47:56;31.2;100.0
22674;DHT22;11504;43.334;21.918;2022-08-01T12:52:46;31.2;100.0
22674;DHT22;11504;43.334;21.918;2022-08-01T12:57:28;31.2;100.0
22674;DHT22;11504;43.334;21.918;2022-08-01T13:02:08;31.2;100.0
22674;DHT22;11504;43.334;21.918;2022-08-01T13:06:46;31.2;100.0
22674;DHT22;11504;43.334;21.918;2022-08-01T13:11:29;31.2;100.0
22674;DHT22;11504;43.334;21.918;2022-08-01T13:16:09;31.2;100.0
22674;DHT22;11504;43.334;21.918;2022-08-01T13:20:49;31.2;100.0
22674;DHT22;11504;43.334;21.918;2022-08-01T13:25:53;31.1;100.0
22674;DHT22;11504;43.334;21.918;2022-08-01T13:30:32;31.1;100.0
22674;DHT22;11504;43.334;21.918;2022-08-01T13:35:12;31.0;100.0
22674;DHT22;11504;43.334;21.918;2022-08-01T13:39:49;31.0;100.0
22674;DHT22;11504;43.334;21.918;2022-08-01T13:44:26;31.0;100.0
22674;DHT22;11504;43.334;21.918;2022-08-01T13:49:03;31.0;100.0
22674;DHT22;11504;43.334;21.918;2022-08-01T13:53:44;30.9;100.0
22674;DHT22;11504;43.334;21.918;2022-08-01T13:58:21;30.9;100.0
22674;DHT22;11504;43.334;21.918;2022-08-01T14:02:59;30.8;100.0
22674;DHT22;11504;43.334;21.918;2022-08-01T14:07:35;30.8;100.0
22674;DHT22;11504;43.334;21.918;2022-08-01T14:12:12;30.8;100.0
22674;DHT22;11504;43.334;21.918;2022-08-01T14:16:49;30.8;100.0
22674;DHT22;11504;43.334;21.918;2022-08-01T14:21:25;30.8;100.0
22674;DHT22;11504;43.334;21.918;2022-08-01T14:26:01;30.7;100.0
22674;DHT22;11504;43.334;21.918;2022-08-01T14:30:38;30.7;100.0
22674;DHT22;11504;43.334;21.918;2022-08-01T14:35:15;30.6;100.0
22674;DHT22;11504;43.334;21.918;2022-08-01T14:39:52;30.6;100.0
22674;DHT22;11504;43.334;21.918;2022-08-01T14:44:29;30.4;100.0
22674;DHT22;11504;43.334;21.918;2022-08-01T14:49:05;30.4;100.0
22674;DHT22;11504;43.334;21.918;2022-08-01T14:53:42;30.3;100.0
22674;DHT22;11504;43.334;21.918;2022-08-01T14:58:19;30.3;100.0
22674;DHT22;11504;43.334;21.918;2022-08-01T15:02:57;30.2;100.0
22674;DHT22;11504;43.334;21.918;2022-08-01T15:07:35;30.2;100.0
22674;DHT22;11504;43.334;21.918;2022-08-01T15:12:14;30.2;100.0
22674;DHT22;11504;43.334;21.918;2022-08-01T15:16:51;30.1;100.0
22674;DHT22;11504;43.334;21.918;2022-08-01T15:21:29;30.1;100.0
22674;DHT22;11504;43.334;21.918;2022-08-01T15:26:07;30.0;100.0
22674;DHT22;11504;43.334;21.918;2022-08-01T15:30:44;30.0;100.0
22674;DHT22;11504;43.334;21.918;2022-08-01T15:35:21;29.9;100.0
22674;DHT22;11504;43.334;21.918;2022-08-01T15:39:59;29.9;100.0
22674;DHT22;11504;43.334;21.918;2022-08-01T15:44:37;29.8;100.0
22674;DHT22;11504;43.334;21.918;2022-08-01T15:49:18;29.8;100.0
22674;DHT22;11504;43.334;21.918;2022-08-01T15:53:56;29.6;100.0
22674;DHT22;11504;43.334;21.918;2022-08-01T15:58:34;29.6;100.0
22674;DHT22;11504;43.334;21.918;2022-08-01T16:03:11;29.4;100.0
22674;DHT22;11504;43.334;21.918;2022-08-01T16:07:48;29.4;100.0
22674;DHT22;11504;43.334;21.918;2022-08-01T16:12:24;29.4;100.0
22674;DHT22;11504;43.334;21.918;2022-08-01T16:17:01;29.3;100.0
22674;DHT22;11504;43.334;21.918;2022-08-01T16:21:39;29.3;100.0
22674;DHT22;11504;43.334;21.918;2022-08-01T16:26:17;29.2;100.0
22674;DHT22;11504;43.334;21.918;2022-08-01T16:30:55;29.2;100.0
22674;DHT22;11504;43.334;21.918;2022-08-01T16:35:31;29.0;100.0
22674;DHT22;11504;43.334;21.918;2022-08-01T16:40:09;29.0;100.0
22674;DHT22;11504;43.334;21.918;2022-08-01T16:44:47;28.9;100.0
22674;DHT22;11504;43.334;21.918;2022-08-01T16:49:23;28.9;100.0
22674;DHT22;11504;43.334;21.918;2022-08-01T16:54:00;28.8;100.0
22674;DHT22;11504;43.334;21.918;2022-08-01T16:58:37;28.8;100.0
22674;DHT22;11504;43.334;21.918;2022-08-01T17:03:14;28.6;100.0
22674;DHT22;11504;43.334;21.918;2022-08-01T17:07:50;28.6;100.0
22674;DHT22;11504;43.334;21.918;2022-08-01T17:12:27;28.6;100.0
22674;DHT22;11504;43.334;21.918;2022-08-01T17:17:05;28.5;100.0
22674;DHT22;11504;43.334;21.918;2022-08-01T17:21:43;28.5;100.0
22674;DHT22;11504;43.334;21.918;2022-08-01T17:26:19;28.4;100.0
22674;DHT22;11504;43.334;21.918;2022-08-01T17:30:57;28.4;100.0
22674;DHT22;11504;43.334;21.918;2022-08-01T17:35:34;28.2;100.0
22674;DHT22;11504;43.334;21.918;2022-08-01T17:40:12;28.2;100.0
22674;DHT22;11504;43.334;21.918;2022-08-01T17:44:50;28.0;100.0
22674;DHT22;11504;43.334;21.918;2022-08-01T17:49:27;28.0;100.0
22674;DHT22;11504;43.334;21.918;2022-08-01T17:54:04;27.9;100.0
22674;DHT22;11504;43.334;21.918;2022-08-01T17:58:42;27.9;100.0
22674;DHT22;11504;43.334;21.918;2022-08-01T18:03:19;27.6;100.0
22674;DHT22;11504;43.334;21.918;2022-08-01T18:07:56;27.6;100.0
22674;DHT22;11504;43.334;21.918;2022-08-01T18:12:34;27.6;100.0
22674;DHT22;11504;43.334;21.918;2022-08-01T18:17:12;27.4;100.0
22674;DHT22;11504;43.334;21.918;2022-08-01T18:21:50;27.4;100.0
22674;DHT22;11504;43.334;21.918;2022-08-01T18:26:28;27.2;100.0
22674;DHT22;11504;43.334;21.918;2022-08-01T18:31:05;27.2;100.0
22674;DHT22;11504;43.334;21.918;2022-08-01T18:35:44;27.0;100.0
22674;DHT22;11504;43.334;21.918;2022-08-01T18:40:22;27.0;100.0
22674;DHT22;11504;43.334;21.918;2022-08-01T18:44:59;26.8;100.0
22674;DHT22;11504;43.334;21.918;2022-08-01T18:49:36;26.8;100.0
22674;DHT22;11504;43.334;21.918;2022-08-01T18:54:14;26.5;100.0
22674;DHT22;11504;43.334;21.918;2022-08-01T18:58:52;26.5;100.0
22674;DHT22;11504;43.334;21.918;2022-08-01T19:03:30;26.3;100.0
22674;DHT22;11504;43.334;21.918;2022-08-01T19:08:07;26.3;100.0
22674;DHT22;11504;43.334;21.918;2022-08-01T19:12:44;26.3;100.0
22674;DHT22;11504;43.334;21.918;2022-08-01T19:17:21;26.1;100.0
22674;DHT22;11504;43.334;21.918;2022-08-01T19:21:59;26.1;100.0
22674;DHT22;11504;43.334;21.918;2022-08-01T19:26:36;26.0;100.0
22674;DHT22;11504;43.334;21.918;2022-08-01T19:31:27;26.0;100.0
22674;DHT22;11504;43.334;21.918;2022-08-01T19:36:13;25.8;100.0
22674;DHT22;11504;43.334;21.918;2022-08-01T19:40:54;25.8;100.0
22674;DHT22;11504;43.334;21.918;2022-08-01T19:45:33;25.5;100.0
22674;DHT22;11504;43.334;21.918;2022-08-01T19:50:10;25.5;100.0
22674;DHT22;11504;43.334;21.918;2022-08-01T19:54:51;25.2;100.0
22674;DHT22;11504;43.334;21.918;2022-08-01T19:59:35;25.2;100.0
22674;DHT22;11504;43.334;21.918;2022-08-01T20:04:16;25.0;100.0
22674;DHT22;11504;43.334;21.918;2022-08-01T20:08:55;25.0;100.0
22674;DHT22;11504;43.334;21.918;2022-08-01T20:13:34;24.8;100.0
22674;DHT22;11504;43.334;21.918;2022-08-01T20:18:12;24.8;100.0
22674;DHT22;11504;43.334;21.918;2022-08-01T20:22:55;24.8;100.0
22674;DHT22;11504;43.334;21.918;2022-08-01T20:27:37;24.6;100.0
22674;DHT22;11504;43.334;21.918;2022-08-01T20:32:28;24.6;100.0
22674;DHT22;11504;43.334;21.918;2022-08-01T20:37:17;24.5;100.0
22674;DHT22;11504;43.334;21.918;2022-08-01T20:41:58;24.5;100.0
22674;DHT22;11504;43.334;21.918;2022-08-01T20:46:43;24.4;100.0
22674;DHT22;11504;43.334;21.918;2022-08-01T20:51:28;24.4;100.0
22674;DHT22;11504;43.334;21.918;2022-08-01T20:56:16;24.3;100.0
22674;DHT22;11504;43.334;21.918;2022-08-01T21:01:38;24.3;100.0
22674;DHT22;11504;43.334;21.918;2022-08-01T21:07:13;24.0;100.0
22674;DHT22;11504;43.334;21.918;2022-08-01T21:12:25;24.0;100.0
22674;DHT22;11504;43.334;21.918;2022-08-01T21:17:45;23.6;100.0
22674;DHT22;11504;43.334;21.918;2022-08-01T21:23:03;23.6;100.0
22674;DHT22;11504;43.334;21.918;2022-08-01T21:28:13;23.4;100.0
22674;DHT22;11504;43.334;21.918;2022-08-01T21:32:51;23.4;100.0
22674;DHT22;11504;43.334;21.918;2022-08-01T21:37:38;23.1;100.0
22674;DHT22;11504;43.334;21.918;2022-08-01T21:42:20;23.1;100.0
22674;DHT22;11504;43.334;21.918;2022-08-01T21:47:03;23.0;100.0
22674;DHT22;11504;43.334;21.918;2022-08-01T21:51:50;23.0;100.0
22674;DHT22;11504;43.334;21.918;2022-08-01T21:56:56;22.8;100.0
22674;DHT22;11504;43.334;21.918;2022-08-01T22:02:02;22.8;100.0
22674;DHT22;11504;43.334;21.918;2022-08-01T22:06:56;22.6;100.0
22674;DHT22;11504;43.334;21.918;2022-08-01T22:11:41;22.6;100.0
22674;DHT22;11504;43.334;21.918;2022-08-01T22:16:22;22.3;100.0
22674;DHT22;11504;43.334;21.918;2022-08-01T22:21:05;22.3;100.0
22674;DHT22;11504;43.334;21.918;2022-08-01T22:25:44;22.1;100.0
22674;DHT22;11504;43.334;21.918;2022-08-01T22:30:22;22.1;100.0
22674;DHT22;11504;43.334;21.918;2022-08-01T22:35:00;21.9;100.0
22674;DHT22;11504;43.334;21.918;2022-08-01T22:39:49;21.9;100.0
22674;DHT22;11504;43.334;21.918;2022-08-01T22:44:28;21.6;100.0
22674;DHT22;11504;43.334;21.918;2022-08-01T22:49:50;21.6;100.0
22674;DHT22;11504;43.334;21.918;2022-08-01T22:55:00;21.4;100.0
22674;DHT22;11504;43.334;21.918;2022-08-01T22:59:48;21.4;100.0
22674;DHT22;11504;43.334;21.918;2022-08-01T23:04:45;21.4;100.0
22674;DHT22;11504;43.334;21.918;2022-08-01T23:09:40;21.4;100.0
22674;DHT22;11504;43.334;21.918;2022-08-01T23:14:25;21.3;100.0
22674;DHT22;11504;43.334;21.918;2022-08-01T23:19:12;21.3;100.0
22674;DHT22;11504;43.334;21.918;2022-08-01T23:23:56;21.2;100.0
22674;DHT22;11504;43.334;21.918;2022-08-01T23:28:44;21.2;100.0
22674;DHT22;11504;43.334;21.918;2022-08-01T23:33:25;21.1;100.0
22674;DHT22;11504;43.334;21.918;2022-08-01T23:38:02;21.1;100.0
22674;DHT22;11504;43.334;21.918;2022-08-01T23:42:44;21.1;100.0
22674;DHT22;11504;43.334;21.918;2022-08-01T23:47:23;21.0;100.0
22674;DHT22;11504;43.334;21.918;2022-08-01T23:52:00;21.0;100.0
22674;DHT22;11504;43.334;21.918;2022-08-01T23:56:40;20.8;100.0
